Time;durP1;ratioP1;P1;durP2;ratioP2;P2;SDS_P1;SDS_P2;PMS_P1;PMS_P2;Temp;Humidity;BMP_temperature;BMP_pressure;BME280_temperature;BME280_humidity;BME280_pressure;Samples;Min_cycle;Max_cycle;Signal;HPM_P1;HPM_P2
2022/03/07 00:00:48;;;;;;;17.37;11.73;;;;;;;-0.61;100.00;95621.44;5055072;28;20245;-63
2022/03/07 00:03:13;;;;;;;16.20;12.57;;;;;;;-0.61;100.00;95616.06;5054935;28;20214;-63
2022/03/07 00:05:39;;;;;;;15.83;12.33;;;;;;;-0.54;100.00;95620.94;5055299;28;20179;-63
2022/03/07 00:08:04;;;;;;;17.30;11.67;;;;;;;-0.61;100.00;95623.34;5054973;28;20568;-62
2022/03/07 00:10:30;;;;;;;15.97;11.73;;;;;;;-0.56;100.00;95617.78;5056179;28;20192;-62
2022/03/07 00:12:56;;;;;;;18.13;11.37;;;;;;;-0.54;100.00;95623.59;5055849;28;20184;-57
2022/03/07 00:15:21;;;;;;;15.33;11.03;;;;;;;-0.58;100.00;95625.38;5054892;28;20190;-55
2022/03/07 00:17:46;;;;;;;15.83;11.67;;;;;;;-0.51;100.00;95625.66;5054799;28;20188;-55
2022/03/07 00:20:12;;;;;;;16.27;10.93;;;;;;;-0.54;100.00;95618.25;5054817;28;20186;-57
2022/03/07 00:22:37;;;;;;;16.87;11.57;;;;;;;-0.61;100.00;95621.44;5054928;28;20198;-55
2022/03/07 00:25:03;;;;;;;14.37;10.43;;;;;;;-0.62;100.00;95627.16;5054842;28;20186;-55
2022/03/07 00:27:28;;;;;;;15.27;11.13;;;;;;;-0.70;100.00;95626.06;5054772;28;20211;-57
2022/03/07 00:29:54;;;;;;;13.47;10.40;;;;;;;-0.69;100.00;95629.56;5054781;28;20274;-57
2022/03/07 00:32:19;;;;;;;15.90;11.37;;;;;;;-0.68;100.00;95633.78;5056182;28;20189;-62
2022/03/07 00:34:45;;;;;;;15.53;11.23;;;;;;;-0.68;100.00;95631.13;5054408;28;20191;-63
2022/03/07 00:37:10;;;;;;;16.43;11.67;;;;;;;-0.74;100.00;95632.41;5054504;28;20191;-62
2022/03/07 00:39:35;;;;;;;14.50;11.20;;;;;;;-0.75;100.00;95634.31;5054925;28;20186;-65
2022/03/07 00:42:01;;;;;;;15.43;11.40;;;;;;;-0.79;100.00;95628.03;5054249;28;20221;-63
2022/03/07 00:44:26;;;;;;;15.50;11.60;;;;;;;-0.81;100.00;95634.81;5054567;28;20185;-62
2022/03/07 00:46:51;;;;;;;16.53;11.87;;;;;;;-0.81;100.00;95632.13;5055024;28;20195;-56
2022/03/07 00:49:17;;;;;;;16.30;11.43;;;;;;;-0.75;100.00;95633.53;5054399;28;20273;-53
2022/03/07 00:51:42;;;;;;;16.57;11.13;;;;;;;-0.80;100.00;95634.50;5054443;28;20205;-50
2022/03/07 00:54:07;;;;;;;16.13;11.60;;;;;;;-0.85;100.00;95632.00;5054658;28;20224;-50
2022/03/07 00:56:33;;;;;;;16.90;11.70;;;;;;;-0.92;100.00;95620.22;5053928;28;20280;-50
2022/03/07 00:58:59;;;;;;;15.93;11.57;;;;;;;-0.93;100.00;95614.09;5053198;28;20584;-49
2022/03/07 01:01:24;;;;;;;16.63;11.03;;;;;;;-0.89;100.00;95624.94;5054262;28;20185;-48
2022/03/07 01:03:50;;;;;;;14.53;11.83;;;;;;;-0.87;100.00;95612.00;5070870;28;20236;-50
2022/03/07 01:06:15;;;;;;;14.80;11.27;;;;;;;-0.92;100.00;95625.59;5054300;28;20206;-59
2022/03/07 01:08:41;;;;;;;18.20;11.40;;;;;;;-0.92;100.00;95628.25;5054074;28;20209;-54
2022/03/07 01:11:06;;;;;;;18.37;12.37;;;;;;;-0.98;100.00;95616.19;5054130;28;20176;-52
2022/03/07 01:13:31;;;;;;;14.70;10.73;;;;;;;-0.93;100.00;95613.31;5054140;28;20192;-54
2022/03/07 01:15:57;;;;;;;15.17;11.60;;;;;;;-0.93;100.00;95618.66;5053998;28;20203;-50
2022/03/07 01:18:22;;;;;;;14.27;11.30;;;;;;;-1.06;100.00;95614.34;5054076;28;20548;-53
2022/03/07 01:20:50;;;;;;;18.17;12.40;;;;;;;-1.00;100.00;95613.03;5054573;28;20187;-54
2022/03/07 01:23:16;;;;;;;16.10;12.00;;;;;;;-0.95;100.00;95615.53;5054516;28;20240;-53
2022/03/07 01:25:41;;;;;;;18.73;11.70;;;;;;;-0.94;100.00;95617.09;5054038;28;20187;-47
2022/03/07 01:28:06;;;;;;;15.80;11.50;;;;;;;-0.97;100.00;95612.38;5053756;28;20305;-56
2022/03/07 01:30:32;;;;;;;18.20;12.43;;;;;;;-1.00;100.00;95618.38;5054050;28;20194;-57
2022/03/07 01:32:57;;;;;;;16.53;11.67;;;;;;;-1.03;100.00;95613.69;5054142;28;20693;-55
2022/03/07 01:35:23;;;;;;;16.37;12.23;;;;;;;-0.99;100.00;95617.28;5053806;28;20659;-56
2022/03/07 01:37:48;;;;;;;16.27;11.73;;;;;;;-1.00;100.00;95613.03;5053702;28;20644;-56
2022/03/07 01:40:14;;;;;;;18.33;12.77;;;;;;;-1.04;100.00;95617.47;5053336;28;20232;-56
2022/03/07 01:42:39;;;;;;;16.53;12.07;;;;;;;-1.00;100.00;95613.03;5054048;28;20182;-46
2022/03/07 01:45:13;;;;;;;16.27;12.03;;;;;;;-1.09;100.00;95610.41;5054258;28;20631;-54
2022/03/07 01:47:39;;;;;;;16.67;11.97;;;;;;;-1.07;100.00;95607.41;5053540;28;20213;-53
2022/03/07 01:50:06;;;;;;;18.60;12.37;;;;;;;-1.17;100.00;95607.78;5053906;28;20183;-54
2022/03/07 01:52:41;;;;;;;19.10;13.00;;;;;;;-1.04;100.00;95606.75;5053394;28;20187;-51
2022/03/07 01:55:09;;;;;;;18.07;13.17;;;;;;;-1.23;100.00;95609.06;5053623;28;20243;-50
2022/03/07 01:57:39;;;;;;;19.87;13.90;;;;;;;-1.15;100.00;95610.91;5053547;28;20204;-53
2022/03/07 02:00:09;;;;;;;19.00;13.23;;;;;;;-1.20;100.00;95605.75;5053546;28;20280;-62
2022/03/07 02:02:34;;;;;;;18.17;13.67;;;;;;;-1.22;100.00;95599.91;5053155;28;20607;-49
2022/03/07 02:05:00;;;;;;;18.13;13.37;;;;;;;-1.17;100.00;95597.06;5053122;28;20194;-49
2022/03/07 02:07:26;;;;;;;22.40;15.73;;;;;;;-1.23;100.00;95598.34;5052999;28;20248;-48
2022/03/07 02:09:52;;;;;;;18.60;13.97;;;;;;;-1.29;100.00;95600.44;5053403;28;20186;-47
2022/03/07 02:12:17;;;;;;;21.37;15.13;;;;;;;-1.33;100.00;95594.16;5053225;28;20249;-49
2022/03/07 02:14:42;;;;;;;19.40;12.87;;;;;;;-1.29;100.00;95594.28;5053040;28;20281;-51
2022/03/07 02:17:08;;;;;;;20.07;14.90;;;;;;;-1.39;100.00;95589.28;5053529;28;20187;-52
2022/03/07 02:19:37;;;;;;;21.30;15.37;;;;;;;-1.37;100.00;95593.25;5053503;28;20190;-60
2022/03/07 02:22:06;;;;;;;21.50;13.83;;;;;;;-1.41;100.00;95591.53;5053144;28;20251;-62
2022/03/07 02:24:31;;;;;;;23.90;15.57;;;;;;;-1.45;100.00;95602.06;5053104;28;20248;-62
2022/03/07 02:27:06;;;;;;;22.03;13.67;;;;;;;-1.44;100.00;95598.31;5052929;28;20820;-63
2022/03/07 02:29:33;;;;;;;24.47;15.03;;;;;;;-1.46;100.00;95602.41;5053173;28;20193;-62
2022/03/07 02:31:58;;;;;;;23.47;15.03;;;;;;;-1.47;100.00;95600.81;5052836;28;20239;-62
2022/03/07 02:34:24;;;;;;;20.67;15.37;;;;;;;-1.46;100.00;95594.38;5053293;28;20190;-62
2022/03/07 02:36:52;;;;;;;21.93;15.03;;;;;;;-1.48;100.00;95597.38;5052981;28;20193;-46
2022/03/07 02:39:18;;;;;;;23.63;14.93;;;;;;;-1.48;100.00;95597.38;5053507;28;20248;-55
2022/03/07 02:41:46;;;;;;;20.63;14.60;;;;;;;-1.54;100.00;95603.22;5053288;28;20197;-54
2022/03/07 02:44:11;;;;;;;19.47;13.93;;;;;;;-1.50;100.00;95604.13;5052808;28;20209;-54
2022/03/07 02:46:37;;;;;;;20.33;14.40;;;;;;;-1.58;100.00;95603.09;5052725;28;20190;-53
2022/03/07 02:49:04;;;;;;;18.27;13.43;;;;;;;-1.48;100.00;95612.66;5053009;28;20205;-53
2022/03/07 02:51:29;;;;;;;19.20;13.53;;;;;;;-1.53;100.00;95616.28;5069670;28;20210;-55
2022/03/07 02:53:55;;;;;;;17.90;13.07;;;;;;;-1.60;100.00;95607.19;5052939;28;20571;-55
2022/03/07 02:56:20;;;;;;;19.43;13.33;;;;;;;-1.54;100.00;95609.38;5052607;28;20548;-49
2022/03/07 02:58:45;;;;;;;16.27;12.17;;;;;;;-1.56;100.00;95606.22;5052931;28;20182;-48
2022/03/07 03:01:11;;;;;;;17.53;12.40;;;;;;;-1.59;100.00;95614.09;5069116;28;20559;-46
2022/03/07 03:03:36;;;;;;;16.93;12.30;;;;;;;-1.57;100.00;95609.22;5052130;28;20206;-48
2022/03/07 03:06:02;;;;;;;18.10;12.03;;;;;;;-1.64;100.00;95608.94;5052097;28;20539;-47
2022/03/07 03:08:27;;;;;;;16.97;12.23;;;;;;;-1.67;100.00;95606.91;5052413;28;20663;-48
2022/03/07 03:10:53;;;;;;;17.23;11.47;;;;;;;-1.66;100.00;95616.50;5052504;28;20190;-49
2022/03/07 03:13:22;;;;;;;16.77;11.50;;;;;;;-1.62;100.00;95612.06;5052537;28;20189;-53
2022/03/07 03:15:48;;;;;;;14.93;11.50;;;;;;;-1.67;100.00;95631.75;5052300;28;20185;-54
2022/03/07 03:18:14;;;;;;;16.33;11.97;;;;;;;-1.66;100.00;95619.97;5052293;28;20376;-49
2022/03/07 03:20:40;;;;;;;18.43;12.10;;;;;;;-1.65;100.00;95621.53;5052238;28;20208;-51
2022/03/07 03:23:05;;;;;;;15.13;11.17;;;;;;;-1.65;100.00;95618.06;5054188;28;20186;-49
2022/03/07 03:25:31;;;;;;;16.63;11.30;;;;;;;-1.73;100.00;95626.91;5055653;28;20639;-49
2022/03/07 03:27:56;;;;;;;14.13;9.97;;;;;;;-1.78;100.00;95627.09;5055850;28;20210;-50
2022/03/07 03:30:22;;;;;;;16.03;11.07;;;;;;;-1.73;100.00;95616.19;5055734;28;20553;-50
2022/03/07 03:32:47;;;;;;;14.33;10.70;;;;;;;-1.72;100.00;95617.75;5055631;28;20184;-48
2022/03/07 03:35:13;;;;;;;18.43;12.03;;;;;;;-1.71;100.00;95622.03;5072403;28;20179;-63
2022/03/07 03:37:38;;;;;;;15.53;10.93;;;;;;;-1.68;100.00;95624.06;5056466;28;20190;-63
2022/03/07 03:40:09;;;;;;;12.33;9.37;;;;;;;-1.69;100.00;95620.59;5055715;28;20182;-63
2022/03/07 03:42:35;;;;;;;13.63;9.40;;;;;;;-1.71;100.00;95619.34;5055309;28;20669;-63
2022/03/07 03:45:01;;;;;;;12.87;9.90;;;;;;;-1.72;100.00;95623.13;5055928;28;20269;-64
2022/03/07 03:47:26;;;;;;;17.73;10.67;;;;;;;-1.76;100.00;95617.63;5055094;28;20202;-63
2022/03/07 03:49:52;;;;;;;14.67;9.97;;;;;;;-1.73;100.00;95616.19;5055667;28;20217;-57
2022/03/07 03:52:17;;;;;;;14.43;10.10;;;;;;;-1.65;100.00;95618.06;5055561;28;20186;-63
2022/03/07 03:54:46;;;;;;;13.77;9.83;;;;;;;-1.77;100.00;95616.06;5055404;28;20186;-59
2022/03/07 03:57:11;;;;;;;13.30;9.67;;;;;;;-1.71;100.00;95619.34;5055610;28;20244;-59
2022/03/07 03:59:36;;;;;;;14.27;9.60;;;;;;;-1.73;100.00;95624.22;5055031;28;20182;-59
2022/03/07 04:02:02;;;;;;;14.43;10.03;;;;;;;-1.69;100.00;95623.28;5054809;28;20205;-59
2022/03/07 04:04:27;;;;;;;13.23;9.27;;;;;;;-1.79;100.00;95628.97;5055270;28;20642;-59
2022/03/07 04:06:52;;;;;;;16.47;9.87;;;;;;;-1.78;100.00;95632.44;5054876;28;20182;-59
2022/03/07 04:09:20;;;;;;;14.20;9.77;;;;;;;-1.77;100.00;95634.78;5055247;28;20178;-57
2022/03/07 04:11:45;;;;;;;16.83;10.57;;;;;;;-1.81;100.00;95628.50;5055323;28;20209;-46
2022/03/07 04:14:11;;;;;;;12.67;9.80;;;;;;;-1.86;100.00;95627.91;5055167;28;20189;-46
2022/03/07 04:16:38;;;;;;;13.57;9.30;;;;;;;-1.77;100.00;95628.66;5054966;28;20225;-46
2022/03/07 04:19:05;;;;;;;13.67;10.03;;;;;;;-1.77;100.00;95626.78;5055344;28;20255;-47
2022/03/07 04:21:31;;;;;;;14.07;10.07;;;;;;;-1.77;100.00;95624.09;5054723;28;20710;-46
2022/03/07 04:23:56;;;;;;;11.57;9.00;;;;;;;-1.76;100.00;95622.19;5054911;28;20217;-45
2022/03/07 04:26:22;;;;;;;16.17;9.57;;;;;;;-1.85;100.00;95629.47;5054845;28;20547;-47
2022/03/07 04:28:47;;;;;;;14.57;9.67;;;;;;;-1.85;100.00;95624.91;5055108;28;20293;-47
2022/03/07 04:31:13;;;;;;;14.57;9.60;;;;;;;-1.91;100.00;95620.03;5054776;28;20292;-59
2022/03/07 04:33:38;;;;;;;16.03;10.13;;;;;;;-1.95;100.00;95619.88;5054615;28;20264;-59
2022/03/07 04:36:04;;;;;;;13.30;9.57;;;;;;;-1.78;100.00;95624.41;5054413;28;20196;-59
2022/03/07 04:38:29;;;;;;;16.07;9.70;;;;;;;-1.85;100.00;95613.41;5054637;28;20186;-59
2022/03/07 04:40:55;;;;;;;15.23;10.33;;;;;;;-1.89;100.00;95618.59;5054431;28;20190;-59
2022/03/07 04:43:21;;;;;;;15.53;9.53;;;;;;;-1.83;100.00;95627.25;5054338;28;20190;-60
2022/03/07 04:45:46;;;;;;;17.07;10.00;;;;;;;-1.80;100.00;95626.59;5054455;28;20284;-59
2022/03/07 04:48:14;;;;;;;13.90;9.83;;;;;;;-1.77;100.00;95631.31;5054284;28;20292;-64
2022/03/07 04:50:40;;;;;;;14.83;10.00;;;;;;;-1.74;100.00;95625.34;5054227;28;20203;-65
2022/03/07 04:53:06;;;;;;;13.73;9.70;;;;;;;-1.71;100.00;95630.06;5054447;28;20635;-64
2022/03/07 04:55:31;;;;;;;13.10;10.30;;;;;;;-1.68;100.00;95629.44;5054546;28;20285;-64
2022/03/07 04:57:56;;;;;;;16.03;10.60;;;;;;;-1.69;100.00;95625.94;5054490;28;20197;-64
2022/03/07 05:00:22;;;;;;;18.07;10.27;;;;;;;-1.79;100.00;95628.97;5054136;28;20644;-64
2022/03/07 05:02:47;;;;;;;14.50;10.13;;;;;;;-1.79;100.00;95622.84;5053988;28;20237;-64
2022/03/07 05:05:12;;;;;;;13.57;10.23;;;;;;;-1.78;100.00;95621.75;5054225;28;20178;-56
2022/03/07 05:07:38;;;;;;;14.53;10.00;;;;;;;-1.79;100.00;95628.19;5054135;28;20217;-50
2022/03/07 05:10:04;;;;;;;15.20;10.70;;;;;;;-1.82;100.00;95618.13;5054687;28;20192;-52
2022/03/07 05:12:29;;;;;;;14.23;9.97;;;;;;;-1.84;100.00;95623.78;5054524;28;20190;-51
2022/03/07 05:14:55;;;;;;;14.97;10.57;;;;;;;-1.80;100.00;95631.97;5053777;28;20276;-54
2022/03/07 05:17:20;;;;;;;14.50;10.70;;;;;;;-1.79;100.00;95633.56;5054451;28;20198;-54
2022/03/07 05:19:47;;;;;;;15.73;11.10;;;;;;;-1.85;100.00;95629.47;5053966;28;20209;-55
2022/03/07 05:22:13;;;;;;;17.77;11.23;;;;;;;-1.81;100.00;95636.53;5053905;28;20186;-50
2022/03/07 05:24:38;;;;;;;17.03;11.47;;;;;;;-1.80;100.00;95637.31;5070739;28;20272;-46
2022/03/07 05:27:04;;;;;;;15.43;10.77;;;;;;;-1.85;100.00;95638.28;5053692;28;20301;-49
2022/03/07 05:29:29;;;;;;;16.27;11.00;;;;;;;-1.82;100.00;95634.19;5053726;28;20533;-45
2022/03/07 05:31:54;;;;;;;18.67;11.17;;;;;;;-1.88;100.00;95632.78;5053787;28;20218;-52
2022/03/07 05:34:20;;;;;;;16.83;10.90;;;;;;;-1.76;100.00;95644.38;5054035;28;20197;-51
2022/03/07 05:36:45;;;;;;;15.63;10.53;;;;;;;-1.78;100.00;95638.56;5054273;28;20526;-47
2022/03/07 05:39:11;;;;;;;14.03;10.20;;;;;;;-1.76;100.00;95632.88;5053862;28;20194;-46
2022/03/07 05:41:36;;;;;;;15.30;10.43;;;;;;;-1.83;100.00;95643.28;5053986;28;20193;-59
2022/03/07 05:44:02;;;;;;;15.97;10.57;;;;;;;-1.82;100.00;95634.94;5054085;28;20589;-60
2022/03/07 05:46:28;;;;;;;15.83;10.27;;;;;;;-1.86;100.00;95639.38;5053293;28;20197;-61
2022/03/07 05:48:53;;;;;;;13.87;9.73;;;;;;;-1.82;100.00;95639.53;5053428;28;20202;-62
2022/03/07 05:51:23;;;;;;;16.67;10.60;;;;;;;-1.81;100.00;95635.75;5053371;28;20237;-60
2022/03/07 05:53:49;;;;;;;17.27;10.90;;;;;;;-1.79;100.00;95641.56;5053860;28;20255;-62
2022/03/07 05:56:14;;;;;;;15.50;10.00;;;;;;;-1.85;100.00;95640.16;5053213;28;20186;-62
2022/03/07 05:58:39;;;;;;;17.37;10.77;;;;;;;-1.85;100.00;95635.59;5054151;28;20263;-45
2022/03/07 06:01:05;;;;;;;16.03;10.10;;;;;;;-1.80;100.00;95634.63;5053376;28;20190;-46
2022/03/07 06:03:30;;;;;;;15.73;10.77;;;;;;;-1.80;100.00;95639.97;5053042;28;20213;-52
2022/03/07 06:05:55;;;;;;;15.87;10.60;;;;;;;-1.80;100.00;95642.66;5053665;28;20178;-51
2022/03/07 06:08:21;;;;;;;16.07;10.47;;;;;;;-1.87;100.00;95643.16;5053170;28;20216;-51
2022/03/07 06:10:46;;;;;;;16.53;10.80;;;;;;;-1.77;100.00;95645.50;5052903;28;20239;-52
2022/03/07 06:13:12;;;;;;;15.20;10.67;;;;;;;-1.73;100.00;95645.63;5053270;28;20277;-53
2022/03/07 06:15:43;;;;;;;15.70;10.53;;;;;;;-1.70;100.00;95647.69;5053250;28;20193;-53
2022/03/07 06:18:09;;;;;;;13.47;10.23;;;;;;;-1.67;100.00;95641.69;5053617;28;20243;-52
2022/03/07 06:20:34;;;;;;;15.83;10.77;;;;;;;-1.60;100.00;95642.00;5052827;28;20186;-45
2022/03/07 06:23:00;;;;;;;14.13;9.97;;;;;;;-1.65;100.00;95640.25;5053030;28;20655;-49
2022/03/07 06:25:26;;;;;;;14.00;10.10;;;;;;;-1.62;100.00;95654.88;5053000;28;20185;-45
2022/03/07 06:27:51;;;;;;;14.50;10.03;;;;;;;-1.62;100.00;95649.53;5052854;28;20202;-49
2022/03/07 06:30:17;;;;;;;15.13;9.90;;;;;;;-1.52;100.00;95658.03;5052998;28;20262;-45
2022/03/07 06:32:42;;;;;;;14.13;10.13;;;;;;;-1.52;100.00;95670.63;5052540;28;20182;-53
2022/03/07 06:35:08;;;;;;;16.37;10.40;;;;;;;-1.60;100.00;95668.75;5052452;28;20190;-56
2022/03/07 06:37:33;;;;;;;17.40;11.00;;;;;;;-1.54;100.00;95670.13;5052891;28;20233;-58
2022/03/07 06:39:58;;;;;;;15.03;10.83;;;;;;;-1.49;100.00;95664.63;5052678;28;20236;-46
2022/03/07 06:42:24;;;;;;;15.40;10.87;;;;;;;-1.52;100.00;95671.41;5053144;28;20283;-47
2022/03/07 06:44:49;;;;;;;17.63;11.73;;;;;;;-1.57;100.00;95684.19;5053254;28;20186;-46
2022/03/07 06:47:16;;;;;;;17.30;10.57;;;;;;;-1.66;100.00;95680.72;5053124;28;20701;-45
2022/03/07 06:49:42;;;;;;;15.20;10.43;;;;;;;-1.62;100.00;95687.00;5053052;28;20186;-48
2022/03/07 06:52:08;;;;;;;17.17;11.30;;;;;;;-1.58;100.00;95680.72;5052659;28;20542;-46
2022/03/07 06:54:34;;;;;;;19.10;10.77;;;;;;;-1.44;100.00;95693.88;5052771;28;20188;-62
2022/03/07 06:56:59;;;;;;;15.70;10.97;;;;;;;-1.49;100.00;95696.75;5051308;28;20189;-47
2022/03/07 06:59:25;;;;;;;24.87;10.97;;;;;;;-1.47;100.00;95691.84;5052650;28;20192;-46
2022/03/07 07:01:51;;;;;;;16.47;11.53;;;;;;;-1.47;100.00;95684.63;5052484;28;20304;-45
2022/03/07 07:04:17;;;;;;;17.60;11.87;;;;;;;-1.41;100.00;95685.22;5052498;28;20280;-47
2022/03/07 07:06:42;;;;;;;17.77;12.37;;;;;;;-1.40;100.00;95684.13;5052311;28;20228;-50
2022/03/07 07:09:08;;;;;;;18.17;11.97;;;;;;;-1.36;100.00;95674.31;5052599;28;20263;-46
2022/03/07 07:11:33;;;;;;;17.27;12.37;;;;;;;-1.08;100.00;95675.47;5052097;28;20186;-47
2022/03/07 07:13:58;;;;;;;19.57;13.23;;;;;;;-1.07;100.00;95675.16;5052472;28;20602;-58
2022/03/07 07:16:24;;;;;;;18.67;12.07;;;;;;;-1.01;100.00;95675.75;5052207;28;20248;-68
2022/03/07 07:18:49;;;;;;;18.03;12.30;;;;;;;-1.13;100.00;95673.75;5052379;28;20240;-67
2022/03/07 07:21:14;;;;;;;18.27;12.87;;;;;;;-1.01;100.00;95683.81;5052152;28;20277;-66
2022/03/07 07:23:40;;;;;;;19.67;12.23;;;;;;;-0.97;100.00;95679.38;5052216;28;20190;-71
2022/03/07 07:26:06;;;;;;;16.57;11.90;;;;;;;-0.65;100.00;95678.72;5051794;28;20182;-66
2022/03/07 07:28:32;;;;;;;18.17;12.63;;;;;;;-0.54;100.00;95680.69;5051998;28;20220;-66
2022/03/07 07:30:58;;;;;;;18.63;12.43;;;;;;;-0.49;100.00;95679.72;5051749;28;20277;-69
2022/03/07 07:33:23;;;;;;;17.97;12.20;;;;;;;-0.37;100.00;95685.13;5068868;28;20206;-46
2022/03/07 07:35:49;;;;;;;17.27;12.30;;;;;;;-0.52;100.00;95699.13;5051833;28;20604;-48
2022/03/07 07:38:14;;;;;;;18.00;12.07;;;;;;;-0.41;100.00;95686.91;5052865;28;20212;-46
2022/03/07 07:40:41;;;;;;;20.10;12.70;;;;;;;-0.21;100.00;95704.91;5052852;28;20194;-50
2022/03/07 07:43:06;;;;;;;18.90;12.97;;;;;;;-0.54;100.00;95696.00;5051961;28;20187;-50
2022/03/07 07:45:32;;;;;;;19.67;13.60;;;;;;;-0.49;100.00;95704.63;5051695;28;20216;-46
2022/03/07 07:48:00;;;;;;;21.07;13.50;;;;;;;-0.50;100.00;95705.72;5052222;28;20569;-48
2022/03/07 07:50:27;;;;;;;22.77;13.87;;;;;;;-0.34;100.00;95706.75;5051545;28;20190;-53
2022/03/07 07:52:54;;;;;;;18.73;13.10;;;;;;;-0.16;100.00;95712.75;5052175;28;20179;-62
2022/03/07 07:55:20;;;;;;;19.37;13.37;;;;;;;0.09;100.00;95703.72;5051898;28;20184;-62
2022/03/07 07:57:46;;;;;;;19.67;14.67;;;;;;;0.27;100.00;95715.88;5051858;28;20183;-62
2022/03/07 08:00:15;;;;;;;19.27;13.40;;;;;;;0.04;100.00;95720.03;5051581;28;20243;-63
2022/03/07 08:02:41;;;;;;;17.80;13.10;;;;;;;0.26;100.00;95721.59;5051652;28;20279;-62
2022/03/07 08:05:07;;;;;;;20.00;13.63;;;;;;;0.16;100.00;95720.09;5051433;28;20179;-62
2022/03/07 08:07:34;;;;;;;18.30;13.40;;;;;;;0.28;100.00;95722.81;5051169;28;20220;-62
2022/03/07 08:10:00;;;;;;;17.77;13.53;;;;;;;0.08;100.00;95727.09;5055509;28;20257;-56
2022/03/07 08:12:26;;;;;;;21.03;13.77;;;;;;;-0.08;100.00;95744.09;5054933;28;20630;-56
2022/03/07 08:14:54;;;;;;;21.10;14.00;;;;;;;-0.18;100.00;95741.84;5054720;28;20191;-57
2022/03/07 08:17:19;;;;;;;20.67;13.50;;;;;;;0.03;100.00;95747.97;5054813;28;20229;-56
2022/03/07 08:19:54;;;;;;;22.70;14.47;;;;;;;0.08;100.00;95744.31;5055527;28;20196;-59
2022/03/07 08:22:20;;;;;;;20.17;13.77;;;;;;;0.38;100.00;95749.28;5054517;28;20193;-56
2022/03/07 08:24:45;;;;;;;24.20;15.40;;;;;;;0.53;100.00;95745.97;5055536;28;20282;-56
2022/03/07 08:27:10;;;;;;;20.97;14.83;;;;;;;0.42;100.00;95747.50;5054692;28;20269;-64
2022/03/07 08:29:36;;;;;;;22.40;15.27;;;;;;;0.48;100.00;95751.56;5054854;28;20192;-48
2022/03/07 08:32:01;;;;;;;18.97;14.40;;;;;;;0.74;100.00;95751.28;5054258;28;20230;-45
2022/03/07 08:34:27;;;;;;;17.70;13.73;;;;;;;0.73;100.00;95769.31;5054684;28;20192;-47
2022/03/07 08:36:52;;;;;;;21.40;15.93;;;;;;;0.96;100.00;95750.91;5054508;28;20192;-47
2022/03/07 08:39:17;;;;;;;24.70;15.00;;;;;;;0.85;100.00;95752.44;5054458;28;20184;-48
2022/03/07 08:41:42;;;;;;;20.57;14.97;;;;;;;0.82;100.00;95753.91;5054853;28;20187;-46
2022/03/07 08:44:08;;;;;;;20.50;14.97;;;;;;;0.87;100.00;95744.84;5054649;28;20196;-51
2022/03/07 08:46:33;;;;;;;22.30;15.13;;;;;;;1.15;100.00;95751.94;5054447;28;20192;-59
2022/03/07 08:48:58;;;;;;;24.57;15.27;;;;;;;1.71;100.00;95751.06;5054951;28;20205;-65
2022/03/07 08:51:24;;;;;;;19.97;13.83;;;;;;;1.21;100.00;95761.38;5054499;28;20661;-65
2022/03/07 08:53:49;;;;;;;20.20;15.57;;;;;;;1.58;100.00;95767.53;5054527;28;20242;-63
2022/03/07 08:56:15;;;;;;;23.37;14.97;;;;;;;1.14;100.00;95761.13;5054394;28;20193;-63
2022/03/07 08:58:40;;;;;;;21.00;15.37;;;;;;;1.06;100.00;95770.06;5054458;28;20190;-62
2022/03/07 09:01:06;;;;;;;20.37;15.03;;;;;;;1.16;100.00;95766.94;5054163;28;20213;-63
2022/03/07 09:03:31;;;;;;;23.63;15.57;;;;;;;1.52;100.00;95761.59;5055225;28;20205;-58
2022/03/07 09:05:56;;;;;;;19.77;13.93;;;;;;;1.40;100.00;95791.19;5053840;28;20207;-53
2022/03/07 09:08:22;;;;;;;22.30;14.70;;;;;;;1.58;99.26;95762.16;5054730;28;20217;-53
2022/03/07 09:10:47;;;;;;;22.67;15.47;;;;;;;1.41;99.84;95771.25;5054185;28;20197;-53
2022/03/07 09:13:12;;;;;;;21.37;15.53;;;;;;;1.96;99.46;95771.44;5054082;28;20609;-55
2022/03/07 09:15:38;;;;;;;22.60;15.80;;;;;;;2.01;94.94;95763.13;5053709;28;20256;-55
2022/03/07 09:18:03;;;;;;;20.30;15.50;;;;;;;2.67;92.81;95761.59;5054305;28;20194;-58
2022/03/07 09:20:28;;;;;;;20.60;14.83;;;;;;;2.83;88.74;95767.81;5052840;28;20193;-59
2022/03/07 09:22:54;;;;;;;20.10;15.73;;;;;;;2.20;89.92;95770.63;5053960;28;20674;-63
2022/03/07 09:25:19;;;;;;;21.97;16.30;;;;;;;2.53;90.23;95785.44;5053873;28;20547;-57
2022/03/07 09:27:45;;;;;;;22.03;16.73;;;;;;;2.14;91.77;95777.34;5053798;28;20566;-61
2022/03/07 09:30:12;;;;;;;21.60;15.87;;;;;;;2.08;92.71;95784.88;5053561;28;20536;-57
2022/03/07 09:32:38;;;;;;;22.30;16.37;;;;;;;2.43;91.30;95804.78;5053806;28;20236;-59
2022/03/07 09:35:03;;;;;;;21.47;15.53;;;;;;;2.19;94.71;95785.97;5053401;28;20527;-59
2022/03/07 09:37:29;;;;;;;20.47;14.77;;;;;;;2.25;94.37;95779.25;5053391;28;20261;-59
2022/03/07 09:39:54;;;;;;;24.90;17.10;;;;;;;2.39;94.32;95790.44;5053575;28;20193;-62
2022/03/07 09:42:21;;;;;;;21.20;15.63;;;;;;;2.64;88.22;95791.13;5053874;28;20188;-57
2022/03/07 09:44:47;;;;;;;23.83;17.17;;;;;;;2.43;86.00;95795.91;5053608;28;20190;-57
2022/03/07 09:47:13;;;;;;;22.93;15.33;;;;;;;2.81;85.12;95805.09;5053204;28;20186;-58
2022/03/07 09:49:38;;;;;;;24.33;16.73;;;;;;;2.97;96.54;95800.53;5053824;28;20190;-45
2022/03/07 09:52:04;;;;;;;20.00;15.80;;;;;;;2.79;84.25;95838.94;5053430;28;20272;-52
2022/03/07 09:54:29;;;;;;;21.53;16.63;;;;;;;2.27;82.60;95806.63;5053622;28;20181;-61
2022/03/07 09:56:56;;;;;;;22.33;16.30;;;;;;;2.04;84.68;95810.16;5053786;28;20186;-56
2022/03/07 09:59:22;;;;;;;23.17;16.73;;;;;;;1.85;86.59;95805.31;5053489;28;20177;-55
2022/03/07 10:02:24;;;;;;;23.30;16.00;;;;;;;2.64;83.74;95807.31;5053149;28;20209;-59
2022/03/07 10:04:49;;;;;;;21.70;16.00;;;;;;;2.43;83.05;95796.69;5039935;28;20284;-57
2022/03/07 10:07:15;;;;;;;21.77;15.53;;;;;;;2.96;80.02;95804.34;5053690;28;20277;-57
2022/03/07 10:09:41;;;;;;;25.10;16.47;;;;;;;3.33;78.73;95818.44;5053403;28;20193;-58
2022/03/07 10:12:07;;;;;;;22.50;16.23;;;;;;;3.51;75.21;95809.66;5054178;28;20316;-58
2022/03/07 10:14:42;;;;;;;21.17;15.90;;;;;;;2.36;79.61;95818.06;5053344;28;20185;-58
2022/03/07 10:17:17;;;;;;;25.53;16.63;;;;;;;2.54;82.50;95816.66;5053680;28;20185;-58
2022/03/07 10:19:44;;;;;;;21.30;14.17;;;;;;;2.44;82.84;95830.59;5053838;28;20278;-59
2022/03/07 10:22:14;;;;;;;23.10;16.23;;;;;;;2.32;82.22;95819.84;5052934;28;20705;-57
2022/03/07 10:24:39;;;;;;;22.47;16.97;;;;;;;2.44;82.46;95830.59;5053171;28;20182;-55
2022/03/07 10:27:05;;;;;;;22.23;16.70;;;;;;;2.65;81.11;95825.84;5052955;28;20236;-57
2022/03/07 10:29:30;;;;;;;21.40;15.17;;;;;;;2.62;79.24;95826.50;5052855;28;20186;-56
2022/03/07 10:31:55;;;;;;;20.10;13.20;;;;;;;2.34;79.03;95822.22;5052332;28;20197;-56
2022/03/07 10:34:21;;;;;;;22.57;15.83;;;;;;;2.67;77.31;95820.91;5052865;28;20554;-47
2022/03/07 10:36:47;;;;;;;25.00;16.80;;;;;;;2.46;78.60;95833.75;5052824;28;20201;-54
2022/03/07 10:39:21;;;;;;;21.67;16.17;;;;;;;3.20;77.49;95825.81;5052851;28;20185;-61
2022/03/07 10:41:47;;;;;;;21.80;16.70;;;;;;;3.05;75.59;95823.09;5053360;28;20188;-61
2022/03/07 10:44:34;;;;;;;23.00;17.33;;;;;;;2.67;75.89;95834.38;5052678;28;20182;-61
2022/03/07 10:47:07;;;;;;;24.13;16.40;;;;;;;2.69;76.29;95832.09;5053215;28;20185;-62
2022/03/07 10:49:33;;;;;;;22.70;15.63;;;;;;;2.20;77.74;95836.06;5052693;28;20607;-62
2022/03/07 10:52:02;;;;;;;22.03;15.07;;;;;;;1.65;80.42;95832.34;5052555;28;20190;-61
2022/03/07 10:54:27;;;;;;;21.00;15.70;;;;;;;1.65;81.62;95830.47;5053135;28;20217;-63
2022/03/07 10:56:54;;;;;;;23.17;16.50;;;;;;;2.37;81.24;95813.47;5053031;28;20197;-58
2022/03/07 10:59:28;;;;;;;22.63;15.53;;;;;;;2.18;77.92;95835.59;5052907;28;20190;-57
2022/03/07 11:02:02;;;;;;;22.73;15.83;;;;;;;2.37;77.92;95810.75;5052265;28;20221;-57
2022/03/07 11:04:27;;;;;;;20.47;15.73;;;;;;;3.00;75.24;95818.75;5052385;28;20193;-58
2022/03/07 11:06:53;;;;;;;21.63;16.70;;;;;;;2.74;73.91;95828.41;5052745;28;20193;-57
2022/03/07 11:09:18;;;;;;;23.97;15.83;;;;;;;2.73;75.30;95816.81;5052672;28;20301;-57